sensor_id;sensor_type;location;lat;lon;timestamp;P1;durP1;ratioP1;P2;durP2;ratioP2
57317;SDS011;43157;50.982;18.132;2023-07-08T00:01:54;9.00;;;3.70;;
57317;SDS011;43157;50.982;18.132;2023-07-08T00:04:20;11.00;;;4.00;;
57317;SDS011;43157;50.982;18.132;2023-07-08T00:06:47;10.20;;;3.70;;
57317;SDS011;43157;50.982;18.132;2023-07-08T00:09:13;8.40;;;3.60;;
57317;SDS011;43157;50.982;18.132;2023-07-08T00:11:39;10.10;;;3.80;;
57317;SDS011;43157;50.982;18.132;2023-07-08T00:14:05;10.30;;;4.10;;
57317;SDS011;43157;50.982;18.132;2023-07-08T00:16:32;8.70;;;3.80;;
57317;SDS011;43157;50.982;18.132;2023-07-08T00:18:58;10.60;;;4.10;;
57317;SDS011;43157;50.982;18.132;2023-07-08T00:21:24;9.90;;;3.60;;
57317;SDS011;43157;50.982;18.132;2023-07-08T00:23:50;8.10;;;3.20;;
57317;SDS011;43157;50.982;18.132;2023-07-08T00:26:26;10.50;;;3.10;;
57317;SDS011;43157;50.982;18.132;2023-07-08T00:28:54;9.60;;;3.30;;
57317;SDS011;43157;50.982;18.132;2023-07-08T00:31:21;8.70;;;4.00;;
57317;SDS011;43157;50.982;18.132;2023-07-08T00:33:49;10.30;;;3.80;;
57317;SDS011;43157;50.982;18.132;2023-07-08T00:36:16;8.20;;;3.00;;
57317;SDS011;43157;50.982;18.132;2023-07-08T00:38:45;9.60;;;3.60;;
57317;SDS011;43157;50.982;18.132;2023-07-08T00:41:16;9.70;;;3.70;;
57317;SDS011;43157;50.982;18.132;2023-07-08T00:43:51;12.00;;;4.30;;
57317;SDS011;43157;50.982;18.132;2023-07-08T00:46:21;10.00;;;3.90;;
57317;SDS011;43157;50.982;18.132;2023-07-08T00:51:36;10.90;;;4.10;;
57317;SDS011;43157;50.982;18.132;2023-07-08T00:54:10;9.50;;;3.90;;
57317;SDS011;43157;50.982;18.132;2023-07-08T00:59:07;10.80;;;4.20;;
57317;SDS011;43157;50.982;18.132;2023-07-08T01:01:38;10.50;;;4.60;;
57317;SDS011;43157;50.982;18.132;2023-07-08T01:04:07;10.00;;;4.90;;
57317;SDS011;43157;50.982;18.132;2023-07-08T01:06:39;10.50;;;4.80;;
57317;SDS011;43157;50.982;18.132;2023-07-08T01:09:08;11.80;;;4.20;;
57317;SDS011;43157;50.982;18.132;2023-07-08T01:11:36;9.50;;;4.00;;
57317;SDS011;43157;50.982;18.132;2023-07-08T01:14:03;11.30;;;4.30;;
57317;SDS011;43157;50.982;18.132;2023-07-08T01:16:32;11.20;;;4.40;;
57317;SDS011;43157;50.982;18.132;2023-07-08T01:18:59;10.40;;;4.90;;
57317;SDS011;43157;50.982;18.132;2023-07-08T01:24:14;11.50;;;4.30;;
57317;SDS011;43157;50.982;18.132;2023-07-08T01:26:42;9.10;;;3.40;;
57317;SDS011;43157;50.982;18.132;2023-07-08T01:29:09;10.00;;;3.90;;
57317;SDS011;43157;50.982;18.132;2023-07-08T01:31:35;9.50;;;4.30;;
57317;SDS011;43157;50.982;18.132;2023-07-08T01:34:01;10.30;;;4.00;;
57317;SDS011;43157;50.982;18.132;2023-07-08T01:36:31;9.00;;;3.70;;
57317;SDS011;43157;50.982;18.132;2023-07-08T01:39:02;9.10;;;3.60;;
57317;SDS011;43157;50.982;18.132;2023-07-08T01:41:28;10.00;;;3.60;;
57317;SDS011;43157;50.982;18.132;2023-07-08T01:43:54;10.20;;;3.80;;
57317;SDS011;43157;50.982;18.132;2023-07-08T01:46:22;9.20;;;3.50;;
57317;SDS011;43157;50.982;18.132;2023-07-08T01:48:56;10.20;;;3.60;;
57317;SDS011;43157;50.982;18.132;2023-07-08T01:53:49;9.90;;;3.60;;
57317;SDS011;43157;50.982;18.132;2023-07-08T01:56:16;9.70;;;3.20;;
57317;SDS011;43157;50.982;18.132;2023-07-08T01:58:42;7.50;;;2.60;;
57317;SDS011;43157;50.982;18.132;2023-07-08T02:01:08;8.60;;;2.80;;
57317;SDS011;43157;50.982;18.132;2023-07-08T02:03:35;9.10;;;3.30;;
57317;SDS011;43157;50.982;18.132;2023-07-08T02:06:01;9.00;;;3.40;;
57317;SDS011;43157;50.982;18.132;2023-07-08T02:08:27;7.00;;;2.50;;
57317;SDS011;43157;50.982;18.132;2023-07-08T02:10:57;11.20;;;3.20;;
57317;SDS011;43157;50.982;18.132;2023-07-08T02:13:24;10.20;;;4.40;;
57317;SDS011;43157;50.982;18.132;2023-07-08T02:15:50;9.70;;;4.00;;
57317;SDS011;43157;50.982;18.132;2023-07-08T02:18:19;11.20;;;4.10;;
57317;SDS011;43157;50.982;18.132;2023-07-08T02:20:45;9.80;;;2.90;;
57317;SDS011;43157;50.982;18.132;2023-07-08T02:23:12;10.30;;;4.00;;
57317;SDS011;43157;50.982;18.132;2023-07-08T02:25:38;10.10;;;3.90;;
57317;SDS011;43157;50.982;18.132;2023-07-08T02:28:04;10.00;;;3.90;;
57317;SDS011;43157;50.982;18.132;2023-07-08T02:30:30;10.60;;;4.50;;
57317;SDS011;43157;50.982;18.132;2023-07-08T02:32:56;9.00;;;3.60;;
57317;SDS011;43157;50.982;18.132;2023-07-08T02:35:29;10.30;;;4.20;;
57317;SDS011;43157;50.982;18.132;2023-07-08T02:37:56;11.30;;;4.30;;
57317;SDS011;43157;50.982;18.132;2023-07-08T02:40:23;9.50;;;3.80;;
57317;SDS011;43157;50.982;18.132;2023-07-08T02:42:49;9.30;;;3.90;;
57317;SDS011;43157;50.982;18.132;2023-07-08T02:45:16;10.30;;;4.30;;
57317;SDS011;43157;50.982;18.132;2023-07-08T02:47:43;10.10;;;4.10;;
57317;SDS011;43157;50.982;18.132;2023-07-08T02:50:10;11.90;;;4.60;;
57317;SDS011;43157;50.982;18.132;2023-07-08T02:52:36;9.50;;;4.10;;
57317;SDS011;43157;50.982;18.132;2023-07-08T02:55:03;10.10;;;4.30;;
57317;SDS011;43157;50.982;18.132;2023-07-08T02:57:30;9.10;;;4.00;;
57317;SDS011;43157;50.982;18.132;2023-07-08T02:59:56;11.10;;;4.60;;
57317;SDS011;43157;50.982;18.132;2023-07-08T03:02:22;10.20;;;4.00;;
57317;SDS011;43157;50.982;18.132;2023-07-08T03:04:48;7.90;;;2.90;;
57317;SDS011;43157;50.982;18.132;2023-07-08T03:07:15;8.30;;;3.40;;
57317;SDS011;43157;50.982;18.132;2023-07-08T03:09:42;8.50;;;3.40;;
57317;SDS011;43157;50.982;18.132;2023-07-08T03:12:09;10.80;;;3.40;;
57317;SDS011;43157;50.982;18.132;2023-07-08T03:14:36;10.70;;;3.50;;
57317;SDS011;43157;50.982;18.132;2023-07-08T03:17:02;9.00;;;3.30;;
57317;SDS011;43157;50.982;18.132;2023-07-08T03:19:29;10.50;;;3.90;;
57317;SDS011;43157;50.982;18.132;2023-07-08T03:21:55;8.90;;;4.10;;
57317;SDS011;43157;50.982;18.132;2023-07-08T03:24:21;10.90;;;4.10;;
57317;SDS011;43157;50.982;18.132;2023-07-08T03:26:47;8.00;;;3.20;;
57317;SDS011;43157;50.982;18.132;2023-07-08T03:29:17;10.30;;;3.80;;
57317;SDS011;43157;50.982;18.132;2023-07-08T03:31:44;11.30;;;4.20;;
57317;SDS011;43157;50.982;18.132;2023-07-08T03:34:10;11.20;;;4.40;;
57317;SDS011;43157;50.982;18.132;2023-07-08T03:36:42;10.80;;;3.80;;
57317;SDS011;43157;50.982;18.132;2023-07-08T03:39:18;11.40;;;4.10;;
57317;SDS011;43157;50.982;18.132;2023-07-08T03:41:45;9.30;;;3.90;;
57317;SDS011;43157;50.982;18.132;2023-07-08T03:44:11;8.90;;;3.60;;
57317;SDS011;43157;50.982;18.132;2023-07-08T03:46:38;12.40;;;3.90;;
57317;SDS011;43157;50.982;18.132;2023-07-08T03:49:05;9.00;;;3.70;;
57317;SDS011;43157;50.982;18.132;2023-07-08T03:51:33;9.80;;;4.20;;
57317;SDS011;43157;50.982;18.132;2023-07-08T03:54:02;9.20;;;3.80;;
57317;SDS011;43157;50.982;18.132;2023-07-08T03:56:28;8.90;;;3.80;;
57317;SDS011;43157;50.982;18.132;2023-07-08T03:58:55;10.40;;;3.60;;
57317;SDS011;43157;50.982;18.132;2023-07-08T04:14:01;10.60;;;4.10;;
57317;SDS011;43157;50.982;18.132;2023-07-08T04:16:47;7.90;;;3.20;;
57317;SDS011;43157;50.982;18.132;2023-07-08T04:19:16;10.40;;;3.90;;
57317;SDS011;43157;50.982;18.132;2023-07-08T04:21:43;9.80;;;3.50;;
57317;SDS011;43157;50.982;18.132;2023-07-08T04:24:10;9.40;;;3.40;;
57317;SDS011;43157;50.982;18.132;2023-07-08T04:26:37;11.10;;;3.80;;
57317;SDS011;43157;50.982;18.132;2023-07-08T04:29:06;9.30;;;3.10;;
57317;SDS011;43157;50.982;18.132;2023-07-08T04:31:36;10.60;;;3.00;;
57317;SDS011;43157;50.982;18.132;2023-07-08T04:34:03;10.90;;;3.60;;
57317;SDS011;43157;50.982;18.132;2023-07-08T04:36:29;9.50;;;3.40;;
57317;SDS011;43157;50.982;18.132;2023-07-08T04:38:55;9.50;;;4.00;;
57317;SDS011;43157;50.982;18.132;2023-07-08T04:41:23;8.30;;;3.30;;
57317;SDS011;43157;50.982;18.132;2023-07-08T04:43:51;12.60;;;3.30;;
57317;SDS011;43157;50.982;18.132;2023-07-08T04:46:25;7.20;;;3.30;;
57317;SDS011;43157;50.982;18.132;2023-07-08T04:48:55;9.70;;;3.50;;
57317;SDS011;43157;50.982;18.132;2023-07-08T04:51:21;7.40;;;3.30;;
57317;SDS011;43157;50.982;18.132;2023-07-08T04:53:47;8.60;;;3.60;;
57317;SDS011;43157;50.982;18.132;2023-07-08T04:56:14;8.50;;;3.00;;
57317;SDS011;43157;50.982;18.132;2023-07-08T04:58:40;8.50;;;3.60;;
57317;SDS011;43157;50.982;18.132;2023-07-08T05:01:06;8.20;;;3.40;;
57317;SDS011;43157;50.982;18.132;2023-07-08T05:03:33;9.50;;;3.60;;
57317;SDS011;43157;50.982;18.132;2023-07-08T05:05:59;11.40;;;3.60;;
57317;SDS011;43157;50.982;18.132;2023-07-08T05:08:25;11.50;;;4.10;;
57317;SDS011;43157;50.982;18.132;2023-07-08T05:10:51;12.70;;;5.60;;
57317;SDS011;43157;50.982;18.132;2023-07-08T05:13:17;11.60;;;4.00;;
57317;SDS011;43157;50.982;18.132;2023-07-08T05:15:43;12.60;;;5.10;;
57317;SDS011;43157;50.982;18.132;2023-07-08T05:18:10;13.30;;;5.70;;
57317;SDS011;43157;50.982;18.132;2023-07-08T05:20:36;13.70;;;6.00;;
57317;SDS011;43157;50.982;18.132;2023-07-08T05:23:02;15.00;;;6.20;;
57317;SDS011;43157;50.982;18.132;2023-07-08T05:25:30;18.30;;;5.90;;
57317;SDS011;43157;50.982;18.132;2023-07-08T05:27:58;13.60;;;5.90;;
57317;SDS011;43157;50.982;18.132;2023-07-08T05:30:25;15.50;;;6.20;;
57317;SDS011;43157;50.982;18.132;2023-07-08T05:32:51;15.60;;;6.00;;
57317;SDS011;43157;50.982;18.132;2023-07-08T05:35:18;15.40;;;6.00;;
57317;SDS011;43157;50.982;18.132;2023-07-08T05:37:45;15.00;;;5.70;;
57317;SDS011;43157;50.982;18.132;2023-07-08T05:40:12;12.50;;;5.50;;
57317;SDS011;43157;50.982;18.132;2023-07-08T05:42:38;13.90;;;5.80;;
57317;SDS011;43157;50.982;18.132;2023-07-08T05:45:05;15.30;;;6.10;;
57317;SDS011;43157;50.982;18.132;2023-07-08T05:47:36;12.40;;;5.80;;
57317;SDS011;43157;50.982;18.132;2023-07-08T05:50:03;12.50;;;5.60;;
57317;SDS011;43157;50.982;18.132;2023-07-08T05:52:29;14.20;;;5.20;;
57317;SDS011;43157;50.982;18.132;2023-07-08T05:54:54;15.10;;;5.70;;
57317;SDS011;43157;50.982;18.132;2023-07-08T05:57:21;12.40;;;5.50;;
57317;SDS011;43157;50.982;18.132;2023-07-08T05:59:48;14.90;;;5.40;;
57317;SDS011;43157;50.982;18.132;2023-07-08T06:02:16;12.00;;;5.30;;
57317;SDS011;43157;50.982;18.132;2023-07-08T06:04:42;11.50;;;5.30;;
57317;SDS011;43157;50.982;18.132;2023-07-08T06:07:08;13.10;;;6.20;;
57317;SDS011;43157;50.982;18.132;2023-07-08T06:09:34;13.20;;;5.70;;
57317;SDS011;43157;50.982;18.132;2023-07-08T06:12:01;12.30;;;5.20;;
57317;SDS011;43157;50.982;18.132;2023-07-08T06:14:27;13.10;;;5.10;;
57317;SDS011;43157;50.982;18.132;2023-07-08T06:16:53;13.00;;;5.10;;
57317;SDS011;43157;50.982;18.132;2023-07-08T06:19:20;12.60;;;4.80;;
57317;SDS011;43157;50.982;18.132;2023-07-08T06:21:46;13.20;;;4.90;;
57317;SDS011;43157;50.982;18.132;2023-07-08T06:24:13;12.70;;;5.00;;
57317;SDS011;43157;50.982;18.132;2023-07-08T06:26:39;13.30;;;4.80;;
57317;SDS011;43157;50.982;18.132;2023-07-08T06:29:05;12.50;;;4.70;;
57317;SDS011;43157;50.982;18.132;2023-07-08T06:31:31;14.60;;;4.60;;
57317;SDS011;43157;50.982;18.132;2023-07-08T06:33:57;11.00;;;4.60;;
57317;SDS011;43157;50.982;18.132;2023-07-08T06:36:24;14.20;;;4.90;;
57317;SDS011;43157;50.982;18.132;2023-07-08T06:38:50;11.20;;;4.10;;
57317;SDS011;43157;50.982;18.132;2023-07-08T06:41:16;12.10;;;4.50;;
57317;SDS011;43157;50.982;18.132;2023-07-08T06:43:42;10.00;;;4.20;;
57317;SDS011;43157;50.982;18.132;2023-07-08T06:46:08;11.60;;;4.90;;
57317;SDS011;43157;50.982;18.132;2023-07-08T06:48:34;11.50;;;4.70;;
57317;SDS011;43157;50.982;18.132;2023-07-08T06:51:00;10.20;;;3.70;;
57317;SDS011;43157;50.982;18.132;2023-07-08T06:53:26;11.20;;;3.80;;
57317;SDS011;43157;50.982;18.132;2023-07-08T06:55:53;16.40;;;3.20;;
57317;SDS011;43157;50.982;18.132;2023-07-08T06:58:19;10.20;;;3.60;;
57317;SDS011;43157;50.982;18.132;2023-07-08T07:00:45;11.40;;;3.40;;
57317;SDS011;43157;50.982;18.132;2023-07-08T07:03:12;10.40;;;3.20;;
57317;SDS011;43157;50.982;18.132;2023-07-08T07:05:38;7.50;;;2.90;;
57317;SDS011;43157;50.982;18.132;2023-07-08T07:08:04;12.70;;;4.00;;
57317;SDS011;43157;50.982;18.132;2023-07-08T07:10:33;9.80;;;3.40;;
57317;SDS011;43157;50.982;18.132;2023-07-08T07:12:59;11.00;;;3.90;;
57317;SDS011;43157;50.982;18.132;2023-07-08T07:15:25;12.70;;;3.10;;
57317;SDS011;43157;50.982;18.132;2023-07-08T07:17:51;11.20;;;3.10;;
57317;SDS011;43157;50.982;18.132;2023-07-08T07:20:17;10.30;;;3.50;;
57317;SDS011;43157;50.982;18.132;2023-07-08T07:22:44;7.20;;;2.40;;
57317;SDS011;43157;50.982;18.132;2023-07-08T07:25:10;9.90;;;2.50;;
57317;SDS011;43157;50.982;18.132;2023-07-08T07:27:36;8.50;;;2.90;;
57317;SDS011;43157;50.982;18.132;2023-07-08T07:30:02;9.40;;;2.40;;
57317;SDS011;43157;50.982;18.132;2023-07-08T07:32:29;8.30;;;2.40;;
57317;SDS011;43157;50.982;18.132;2023-07-08T07:34:58;10.00;;;2.80;;
57317;SDS011;43157;50.982;18.132;2023-07-08T07:37:25;8.90;;;2.60;;
57317;SDS011;43157;50.982;18.132;2023-07-08T07:39:51;9.50;;;2.10;;
57317;SDS011;43157;50.982;18.132;2023-07-08T07:42:17;10.70;;;2.20;;
57317;SDS011;43157;50.982;18.132;2023-07-08T07:44:44;7.10;;;1.90;;
57317;SDS011;43157;50.982;18.132;2023-07-08T07:47:10;7.30;;;1.90;;
57317;SDS011;43157;50.982;18.132;2023-07-08T07:49:37;6.90;;;2.30;;
57317;SDS011;43157;50.982;18.132;2023-07-08T07:52:03;6.70;;;2.30;;
57317;SDS011;43157;50.982;18.132;2023-07-08T07:54:29;9.10;;;2.50;;
57317;SDS011;43157;50.982;18.132;2023-07-08T07:56:56;7.40;;;2.10;;
57317;SDS011;43157;50.982;18.132;2023-07-08T07:59:22;6.50;;;2.10;;
57317;SDS011;43157;50.982;18.132;2023-07-08T08:01:48;6.70;;;2.10;;
57317;SDS011;43157;50.982;18.132;2023-07-08T08:04:14;8.70;;;2.10;;
57317;SDS011;43157;50.982;18.132;2023-07-08T08:06:40;7.60;;;2.10;;
57317;SDS011;43157;50.982;18.132;2023-07-08T08:09:07;5.90;;;1.70;;
57317;SDS011;43157;50.982;18.132;2023-07-08T08:11:33;7.90;;;2.10;;
57317;SDS011;43157;50.982;18.132;2023-07-08T08:14:00;4.40;;;1.30;;
57317;SDS011;43157;50.982;18.132;2023-07-08T08:16:27;5.10;;;1.30;;
57317;SDS011;43157;50.982;18.132;2023-07-08T08:18:53;3.80;;;1.40;;
57317;SDS011;43157;50.982;18.132;2023-07-08T08:21:19;6.50;;;1.60;;
57317;SDS011;43157;50.982;18.132;2023-07-08T08:23:47;6.30;;;1.70;;
57317;SDS011;43157;50.982;18.132;2023-07-08T08:26:13;6.10;;;1.70;;
57317;SDS011;43157;50.982;18.132;2023-07-08T08:28:39;7.70;;;1.80;;
57317;SDS011;43157;50.982;18.132;2023-07-08T08:31:05;7.00;;;1.80;;
57317;SDS011;43157;50.982;18.132;2023-07-08T08:33:31;5.90;;;1.80;;
57317;SDS011;43157;50.982;18.132;2023-07-08T08:35:58;6.40;;;1.90;;
57317;SDS011;43157;50.982;18.132;2023-07-08T08:38:24;5.80;;;1.70;;
57317;SDS011;43157;50.982;18.132;2023-07-08T08:40:50;6.40;;;1.70;;
57317;SDS011;43157;50.982;18.132;2023-07-08T08:43:17;7.10;;;1.80;;
57317;SDS011;43157;50.982;18.132;2023-07-08T08:45:59;6.70;;;1.90;;
57317;SDS011;43157;50.982;18.132;2023-07-08T08:48:26;7.50;;;2.10;;
57317;SDS011;43157;50.982;18.132;2023-07-08T08:50:56;6.00;;;1.90;;
57317;SDS011;43157;50.982;18.132;2023-07-08T08:53:25;7.00;;;1.80;;
57317;SDS011;43157;50.982;18.132;2023-07-08T08:55:56;5.90;;;1.80;;
57317;SDS011;43157;50.982;18.132;2023-07-08T08:58:37;5.80;;;1.60;;
57317;SDS011;43157;50.982;18.132;2023-07-08T09:01:09;6.40;;;1.80;;
57317;SDS011;43157;50.982;18.132;2023-07-08T09:03:39;6.20;;;1.80;;
57317;SDS011;43157;50.982;18.132;2023-07-08T09:06:38;6.00;;;1.50;;
57317;SDS011;43157;50.982;18.132;2023-07-08T09:09:09;4.20;;;1.50;;
57317;SDS011;43157;50.982;18.132;2023-07-08T09:14:22;5.40;;;1.80;;
57317;SDS011;43157;50.982;18.132;2023-07-08T09:19:42;4.70;;;1.50;;
57317;SDS011;43157;50.982;18.132;2023-07-08T09:22:13;6.80;;;1.80;;
57317;SDS011;43157;50.982;18.132;2023-07-08T09:27:18;8.40;;;1.60;;
57317;SDS011;43157;50.982;18.132;2023-07-08T09:29:45;6.60;;;1.50;;
57317;SDS011;43157;50.982;18.132;2023-07-08T09:32:18;8.20;;;1.80;;
57317;SDS011;43157;50.982;18.132;2023-07-08T09:34:53;11.00;;;2.00;;
57317;SDS011;43157;50.982;18.132;2023-07-08T09:37:25;6.10;;;1.80;;
57317;SDS011;43157;50.982;18.132;2023-07-08T09:39:56;6.10;;;1.50;;
57317;SDS011;43157;50.982;18.132;2023-07-08T09:42:32;5.30;;;1.40;;
57317;SDS011;43157;50.982;18.132;2023-07-08T09:45:00;6.80;;;1.50;;
57317;SDS011;43157;50.982;18.132;2023-07-08T09:47:34;5.70;;;1.50;;
57317;SDS011;43157;50.982;18.132;2023-07-08T09:50:03;5.70;;;1.80;;
57317;SDS011;43157;50.982;18.132;2023-07-08T09:52:31;5.30;;;1.50;;
57317;SDS011;43157;50.982;18.132;2023-07-08T09:54:57;6.60;;;1.90;;
57317;SDS011;43157;50.982;18.132;2023-07-08T09:59:52;4.00;;;1.30;;
57317;SDS011;43157;50.982;18.132;2023-07-08T10:02:31;3.90;;;1.40;;
57317;SDS011;43157;50.982;18.132;2023-07-08T10:07:40;8.50;;;1.90;;
57317;SDS011;43157;50.982;18.132;2023-07-08T10:10:07;4.60;;;1.60;;
57317;SDS011;43157;50.982;18.132;2023-07-08T10:12:40;5.70;;;1.60;;
57317;SDS011;43157;50.982;18.132;2023-07-08T10:15:18;5.90;;;1.70;;
57317;SDS011;43157;50.982;18.132;2023-07-08T10:17:48;5.60;;;1.50;;
57317;SDS011;43157;50.982;18.132;2023-07-08T10:20:14;7.20;;;1.70;;
57317;SDS011;43157;50.982;18.132;2023-07-08T10:34:02;8.50;;;1.50;;
57317;SDS011;43157;50.982;18.132;2023-07-08T10:36:45;5.80;;;1.40;;
57317;SDS011;43157;50.982;18.132;2023-07-08T10:47:39;4.90;;;1.60;;
57317;SDS011;43157;50.982;18.132;2023-07-08T10:57:59;8.50;;;1.50;;
57317;SDS011;43157;50.982;18.132;2023-07-08T11:06:16;4.70;;;1.50;;
57317;SDS011;43157;50.982;18.132;2023-07-08T11:08:45;5.00;;;1.50;;
57317;SDS011;43157;50.982;18.132;2023-07-08T11:13:58;6.00;;;1.50;;
57317;SDS011;43157;50.982;18.132;2023-07-08T11:16:35;4.60;;;1.20;;
57317;SDS011;43157;50.982;18.132;2023-07-08T11:19:06;4.60;;;1.20;;
57317;SDS011;43157;50.982;18.132;2023-07-08T11:21:41;5.90;;;1.80;;
57317;SDS011;43157;50.982;18.132;2023-07-08T11:26:41;5.30;;;1.20;;
57317;SDS011;43157;50.982;18.132;2023-07-08T11:29:56;5.00;;;1.50;;
57317;SDS011;43157;50.982;18.132;2023-07-08T11:32:04;5.70;;;1.40;;
57317;SDS011;43157;50.982;18.132;2023-07-08T11:34:31;5.40;;;1.30;;
57317;SDS011;43157;50.982;18.132;2023-07-08T11:36:58;4.60;;;1.40;;
57317;SDS011;43157;50.982;18.132;2023-07-08T11:39:38;7.10;;;1.70;;
57317;SDS011;43157;50.982;18.132;2023-07-08T11:45:00;5.60;;;1.60;;
57317;SDS011;43157;50.982;18.132;2023-07-08T11:47:34;4.10;;;1.30;;
57317;SDS011;43157;50.982;18.132;2023-07-08T11:50:03;3.70;;;1.20;;
57317;SDS011;43157;50.982;18.132;2023-07-08T11:52:30;4.40;;;1.30;;
57317;SDS011;43157;50.982;18.132;2023-07-08T11:54:59;7.00;;;1.40;;
57317;SDS011;43157;50.982;18.132;2023-07-08T11:57:34;3.70;;;1.20;;
57317;SDS011;43157;50.982;18.132;2023-07-08T12:00:22;4.20;;;1.50;;
57317;SDS011;43157;50.982;18.132;2023-07-08T12:02:50;5.40;;;1.70;;
57317;SDS011;43157;50.982;18.132;2023-07-08T12:05:31;6.70;;;1.50;;
57317;SDS011;43157;50.982;18.132;2023-07-08T12:07:59;6.20;;;1.30;;
57317;SDS011;43157;50.982;18.132;2023-07-08T12:10:37;6.20;;;1.70;;
57317;SDS011;43157;50.982;18.132;2023-07-08T12:13:09;6.10;;;1.70;;
57317;SDS011;43157;50.982;18.132;2023-07-08T12:15:39;6.00;;;1.40;;
57317;SDS011;43157;50.982;18.132;2023-07-08T12:20:35;7.10;;;1.70;;
57317;SDS011;43157;50.982;18.132;2023-07-08T12:23:04;5.70;;;1.60;;
57317;SDS011;43157;50.982;18.132;2023-07-08T12:25:38;4.30;;;1.50;;
57317;SDS011;43157;50.982;18.132;2023-07-08T12:28:04;4.70;;;1.50;;
57317;SDS011;43157;50.982;18.132;2023-07-08T12:30:31;5.10;;;1.50;;
57317;SDS011;43157;50.982;18.132;2023-07-08T12:32:58;7.10;;;2.00;;
57317;SDS011;43157;50.982;18.132;2023-07-08T12:35:26;8.50;;;1.90;;
57317;SDS011;43157;50.982;18.132;2023-07-08T12:37:59;7.50;;;1.70;;
57317;SDS011;43157;50.982;18.132;2023-07-08T12:40:46;5.60;;;1.80;;
57317;SDS011;43157;50.982;18.132;2023-07-08T12:43:12;4.90;;;1.50;;
57317;SDS011;43157;50.982;18.132;2023-07-08T12:45:39;4.30;;;1.20;;
57317;SDS011;43157;50.982;18.132;2023-07-08T12:48:05;4.40;;;1.50;;
57317;SDS011;43157;50.982;18.132;2023-07-08T12:50:31;5.30;;;1.50;;
57317;SDS011;43157;50.982;18.132;2023-07-08T12:52:57;6.50;;;1.50;;
57317;SDS011;43157;50.982;18.132;2023-07-08T12:55:23;7.60;;;1.50;;
57317;SDS011;43157;50.982;18.132;2023-07-08T12:57:51;4.30;;;1.30;;
57317;SDS011;43157;50.982;18.132;2023-07-08T13:00:28;7.30;;;2.00;;
57317;SDS011;43157;50.982;18.132;2023-07-08T13:03:03;6.30;;;1.60;;
57317;SDS011;43157;50.982;18.132;2023-07-08T13:05:33;6.70;;;1.80;;
57317;SDS011;43157;50.982;18.132;2023-07-08T13:08:00;6.80;;;1.60;;
57317;SDS011;43157;50.982;18.132;2023-07-08T13:10:27;4.20;;;1.30;;
57317;SDS011;43157;50.982;18.132;2023-07-08T13:12:55;4.30;;;1.20;;
57317;SDS011;43157;50.982;18.132;2023-07-08T13:15:28;7.20;;;1.30;;
57317;SDS011;43157;50.982;18.132;2023-07-08T13:17:59;5.20;;;1.30;;
57317;SDS011;43157;50.982;18.132;2023-07-08T13:20:25;6.60;;;1.70;;
57317;SDS011;43157;50.982;18.132;2023-07-08T13:22:52;8.00;;;1.70;;
57317;SDS011;43157;50.982;18.132;2023-07-08T13:25:28;5.20;;;1.70;;
57317;SDS011;43157;50.982;18.132;2023-07-08T13:28:11;4.40;;;1.40;;
57317;SDS011;43157;50.982;18.132;2023-07-08T13:30:55;4.30;;;1.40;;
57317;SDS011;43157;50.982;18.132;2023-07-08T13:33:28;5.60;;;1.50;;
57317;SDS011;43157;50.982;18.132;2023-07-08T13:35:55;5.40;;;1.50;;
57317;SDS011;43157;50.982;18.132;2023-07-08T13:38:23;5.90;;;1.70;;
57317;SDS011;43157;50.982;18.132;2023-07-08T13:40:54;5.30;;;1.30;;
57317;SDS011;43157;50.982;18.132;2023-07-08T13:43:25;4.30;;;1.20;;
57317;SDS011;43157;50.982;18.132;2023-07-08T13:45:52;8.00;;;1.60;;
57317;SDS011;43157;50.982;18.132;2023-07-08T13:48:36;6.10;;;1.20;;
57317;SDS011;43157;50.982;18.132;2023-07-08T13:51:06;4.60;;;1.40;;
57317;SDS011;43157;50.982;18.132;2023-07-08T13:53:54;4.30;;;1.40;;
57317;SDS011;43157;50.982;18.132;2023-07-08T13:56:38;5.50;;;1.50;;
57317;SDS011;43157;50.982;18.132;2023-07-08T13:59:07;4.60;;;1.50;;
57317;SDS011;43157;50.982;18.132;2023-07-08T14:01:38;9.30;;;1.40;;
57317;SDS011;43157;50.982;18.132;2023-07-08T14:04:05;7.00;;;1.50;;
57317;SDS011;43157;50.982;18.132;2023-07-08T14:06:33;3.80;;;1.20;;
57317;SDS011;43157;50.982;18.132;2023-07-08T14:11:53;5.60;;;1.40;;
57317;SDS011;43157;50.982;18.132;2023-07-08T14:14:19;4.80;;;1.30;;
57317;SDS011;43157;50.982;18.132;2023-07-08T14:16:47;6.70;;;1.70;;
57317;SDS011;43157;50.982;18.132;2023-07-08T14:19:22;5.90;;;1.50;;
57317;SDS011;43157;50.982;18.132;2023-07-08T14:24:35;5.00;;;1.40;;
57317;SDS011;43157;50.982;18.132;2023-07-08T14:27:01;5.00;;;1.50;;
57317;SDS011;43157;50.982;18.132;2023-07-08T14:29:27;5.10;;;1.40;;
57317;SDS011;43157;50.982;18.132;2023-07-08T14:31:54;5.00;;;1.40;;
57317;SDS011;43157;50.982;18.132;2023-07-08T14:34:24;4.60;;;1.50;;
57317;SDS011;43157;50.982;18.132;2023-07-08T14:36:51;4.10;;;1.30;;
57317;SDS011;43157;50.982;18.132;2023-07-08T14:39:18;5.20;;;1.40;;
57317;SDS011;43157;50.982;18.132;2023-07-08T14:41:44;5.70;;;1.70;;
57317;SDS011;43157;50.982;18.132;2023-07-08T14:46:51;6.20;;;1.20;;
57317;SDS011;43157;50.982;18.132;2023-07-08T14:49:18;6.10;;;1.40;;
57317;SDS011;43157;50.982;18.132;2023-07-08T14:51:45;5.90;;;1.50;;
57317;SDS011;43157;50.982;18.132;2023-07-08T14:54:11;4.00;;;1.10;;
57317;SDS011;43157;50.982;18.132;2023-07-08T14:56:38;3.10;;;1.20;;
57317;SDS011;43157;50.982;18.132;2023-07-08T14:59:05;3.90;;;1.30;;
57317;SDS011;43157;50.982;18.132;2023-07-08T15:01:31;6.50;;;1.30;;
57317;SDS011;43157;50.982;18.132;2023-07-08T15:03:57;6.80;;;1.80;;
57317;SDS011;43157;50.982;18.132;2023-07-08T15:06:24;6.00;;;1.40;;
57317;SDS011;43157;50.982;18.132;2023-07-08T15:08:50;4.50;;;1.10;;
57317;SDS011;43157;50.982;18.132;2023-07-08T15:11:16;5.80;;;1.50;;
57317;SDS011;43157;50.982;18.132;2023-07-08T15:13:43;5.50;;;1.30;;
57317;SDS011;43157;50.982;18.132;2023-07-08T15:16:12;4.80;;;1.50;;
57317;SDS011;43157;50.982;18.132;2023-07-08T15:18:40;5.10;;;1.30;;
57317;SDS011;43157;50.982;18.132;2023-07-08T15:21:09;5.50;;;1.40;;
57317;SDS011;43157;50.982;18.132;2023-07-08T15:23:36;4.90;;;1.20;;
57317;SDS011;43157;50.982;18.132;2023-07-08T15:26:02;5.60;;;1.20;;
57317;SDS011;43157;50.982;18.132;2023-07-08T15:31:20;8.00;;;1.60;;
57317;SDS011;43157;50.982;18.132;2023-07-08T15:34:04;4.30;;;1.10;;
57317;SDS011;43157;50.982;18.132;2023-07-08T15:36:35;4.80;;;1.30;;
57317;SDS011;43157;50.982;18.132;2023-07-08T15:39:01;6.20;;;1.70;;
57317;SDS011;43157;50.982;18.132;2023-07-08T15:41:28;6.00;;;1.50;;
57317;SDS011;43157;50.982;18.132;2023-07-08T15:43:54;3.80;;;1.20;;
57317;SDS011;43157;50.982;18.132;2023-07-08T15:46:21;5.00;;;1.70;;
57317;SDS011;43157;50.982;18.132;2023-07-08T15:48:47;5.40;;;1.70;;
57317;SDS011;43157;50.982;18.132;2023-07-08T15:51:14;4.70;;;1.40;;
57317;SDS011;43157;50.982;18.132;2023-07-08T15:53:41;6.20;;;1.70;;
57317;SDS011;43157;50.982;18.132;2023-07-08T15:56:11;3.70;;;1.20;;
57317;SDS011;43157;50.982;18.132;2023-07-08T15:58:38;6.20;;;1.30;;
57317;SDS011;43157;50.982;18.132;2023-07-08T16:01:07;3.20;;;1.10;;
57317;SDS011;43157;50.982;18.132;2023-07-08T16:03:35;4.60;;;1.40;;
57317;SDS011;43157;50.982;18.132;2023-07-08T16:06:02;5.70;;;1.60;;
57317;SDS011;43157;50.982;18.132;2023-07-08T16:08:28;7.50;;;1.40;;
57317;SDS011;43157;50.982;18.132;2023-07-08T16:13:29;4.90;;;1.40;;